Time;durP1;ratioP1;P1;durP2;ratioP2;P2;SDS_P1;SDS_P2;PMS_P1;PMS_P2;Temp;Humidity;BMP_temperature;BMP_pressure;BME280_temperature;BME280_humidity;BME280_pressure;Samples;Min_cycle;Max_cycle;Signal;HPM_P1;HPM_P2
2021/12/15 00:01:51;;;;;;;2.88;1.52;;;20.30;58.50;;;;;;5019022;28;87533;-77
2021/12/15 00:04:17;;;;;;;3.17;1.63;;;20.20;58.40;;;;;;5019679;28;87835;-77
2021/12/15 00:06:43;;;;;;;3.78;1.58;;;20.20;58.50;;;;;;5020234;28;88666;-77
2021/12/15 00:09:12;;;;;;;4.47;1.70;;;20.20;58.40;;;;;;5019146;28;87767;-76
2021/12/15 00:11:40;;;;;;;5.82;1.80;;;20.20;58.50;;;;;;5018627;28;87148;-79
2021/12/15 00:14:15;;;;;;;7.38;1.70;;;20.20;58.50;;;;;;5019009;28;89132;-78
2021/12/15 00:16:42;;;;;;;3.03;1.55;;;20.20;58.50;;;;;;5018874;28;88617;-78
2021/12/15 00:19:08;;;;;;;3.80;1.40;;;20.20;58.50;;;;;;5019630;28;87565;-79
2021/12/15 00:21:34;;;;;;;4.28;1.92;;;20.20;58.50;;;;;;5019476;28;87915;-78
2021/12/15 00:24:00;;;;;;;4.47;2.03;;;20.20;58.50;;;;;;5019449;28;88044;-77
2021/12/15 00:26:26;;;;;;;4.38;1.80;;;20.20;58.50;;;;;;5016902;28;87682;-78
2021/12/15 00:28:52;;;;;;;3.08;1.55;;;20.20;58.60;;;;;;5018169;28;87905;-78
2021/12/15 00:31:19;;;;;;;3.08;1.70;;;20.10;58.50;;;;;;5019102;28;86530;-77
2021/12/15 00:33:46;;;;;;;9.23;1.88;;;20.10;58.50;;;;;;4999938;28;89158;-78
2021/12/15 00:36:12;;;;;;;2.38;1.27;;;20.20;58.60;;;;;;5019308;28;87756;-79
2021/12/15 00:38:39;;;;;;;4.32;1.35;;;20.20;58.60;;;;;;5017660;28;88572;-76
2021/12/15 00:41:05;;;;;;;3.75;1.38;;;20.10;58.60;;;;;;4999901;28;87735;-78
2021/12/15 00:43:32;;;;;;;3.15;1.80;;;20.20;58.70;;;;;;5001462;28;89225;-76
2021/12/15 00:45:59;;;;;;;2.50;1.42;;;20.20;58.70;;;;;;5001069;28;91115;-78
2021/12/15 00:48:25;;;;;;;3.00;1.70;;;20.10;58.60;;;;;;5016942;28;87593;-76
2021/12/15 00:50:51;;;;;;;2.25;1.60;;;20.10;58.60;;;;;;5015868;28;89207;-76
2021/12/15 00:53:16;;;;;;;5.90;1.80;;;20.10;58.70;;;;;;5016485;28;87906;-75
2021/12/15 00:55:43;;;;;;;3.63;1.75;;;20.10;58.70;;;;;;5018140;28;87924;-76
2021/12/15 00:58:10;;;;;;;4.63;1.50;;;20.10;58.70;;;;;;5017497;28;87716;-77
2021/12/15 01:00:41;;;;;;;4.75;1.70;;;20.10;58.70;;;;;;5018419;28;87727;-75
2021/12/15 01:03:08;;;;;;;2.47;1.48;;;20.10;58.70;;;;;;5018368;28;88825;-75
2021/12/15 01:05:39;;;;;;;5.30;1.60;;;20.10;58.80;;;;;;5007885;28;88351;-78
2021/12/15 01:08:08;;;;;;;2.45;1.27;;;20.10;58.80;;;;;;5017244;28;87283;-75
2021/12/15 01:21:49;;;;;;;7.35;1.50;;;20.10;58.90;;;;;;5019076;28;87056;-75
2021/12/15 01:24:15;;;;;;;4.25;1.67;;;20.10;58.90;;;;;;5017789;28;88172;-76
2021/12/15 01:26:41;;;;;;;3.15;1.50;;;20.00;59.00;;;;;;5019636;28;87699;-77
2021/12/15 01:29:06;;;;;;;2.97;1.48;;;20.00;58.90;;;;;;5018482;28;88673;-76
2021/12/15 01:31:32;;;;;;;2.50;1.60;;;20.00;58.90;;;;;;5019539;28;87725;-77
2021/12/15 01:33:58;;;;;;;2.10;1.50;;;20.00;58.90;;;;;;5019300;28;87832;-76
2021/12/15 01:36:24;;;;;;;1.80;1.10;;;20.00;58.90;;;;;;5018498;28;87171;-76
2021/12/15 01:38:50;;;;;;;2.80;1.60;;;20.00;59.00;;;;;;5018242;28;87628;-76
2021/12/15 01:41:22;;;;;;;2.65;1.65;;;20.00;59.00;;;;;;5018925;28;87971;-77
2021/12/15 01:49:25;;;;;;;2.40;1.50;;;20.00;59.00;;;;;;5018800;28;87704;-77
2021/12/15 01:51:50;;;;;;;3.28;1.50;;;20.00;59.10;;;;;;5018753;28;87721;-78
2021/12/15 01:54:18;;;;;;;3.28;1.63;;;20.00;59.10;;;;;;5019016;28;88630;-76
2021/12/15 01:56:44;;;;;;;4.70;1.30;;;20.00;59.10;;;;;;5017113;28;88096;-77
2021/12/15 01:59:13;;;;;;;4.32;1.42;;;19.90;59.10;;;;;;5017815;28;87103;-78
2021/12/15 02:01:40;;;;;;;1.95;1.48;;;20.00;59.20;;;;;;5019127;28;87115;-79
2021/12/15 02:04:07;;;;;;;2.47;1.35;;;20.00;59.20;;;;;;5018736;28;88190;-77
2021/12/15 02:06:34;;;;;;;4.82;1.50;;;20.00;59.20;;;;;;4992353;28;90425;-79
2021/12/15 02:09:03;;;;;;;5.00;1.45;;;19.90;59.20;;;;;;5018536;28;87531;-76
2021/12/15 02:11:29;;;;;;;4.95;1.77;;;19.90;59.30;;;;;;5018710;28;86836;-76
2021/12/15 02:13:55;;;;;;;4.10;1.83;;;19.90;59.30;;;;;;5018847;28;87723;-79
2021/12/15 02:16:20;;;;;;;2.10;1.33;;;19.90;59.30;;;;;;4999946;28;87886;-77
2021/12/15 02:18:46;;;;;;;2.90;1.42;;;19.90;59.80;;;;;;4999033;28;88033;-77
2021/12/15 02:21:17;;;;;;;4.22;1.55;;;19.90;59.40;;;;;;5017844;28;87945;-76
2021/12/15 02:23:50;;;;;;;2.53;1.63;;;19.90;59.40;;;;;;5015355;28;91357;-76
2021/12/15 02:26:24;;;;;;;3.83;1.83;;;19.90;59.40;;;;;;5016512;28;90031;-77
2021/12/15 02:28:54;;;;;;;4.18;1.73;;;19.90;59.40;;;;;;5017230;28;87728;-75
2021/12/15 02:32:35;;;;;;;4.30;1.50;;;19.90;59.40;;;;;;5015820;28;87573;-78
2021/12/15 02:37:34;;;;;;;2.85;1.38;;;19.90;59.40;;;;;;5017759;28;87202;-76
2021/12/15 02:39:42;;;;;;;2.92;1.30;;;19.90;59.50;;;;;;5006936;28;88226;-77
2021/12/15 02:42:08;;;;;;;5.85;1.65;;;19.90;59.50;;;;;;4997879;28;87937;-78
2021/12/15 02:44:34;;;;;;;2.58;1.10;;;19.90;59.50;;;;;;5015038;28;89938;-78
2021/12/15 02:47:00;;;;;;;2.60;0.98;;;19.90;59.50;;;;;;4998603;28;90401;-77
2021/12/15 02:49:29;;;;;;;3.33;1.50;;;19.80;59.50;;;;;;5017090;28;87729;-77
2021/12/15 02:51:59;;;;;;;2.50;1.50;;;19.90;59.50;;;;;;5016793;28;87887;-76
2021/12/15 02:54:26;;;;;;;3.97;1.60;;;19.80;59.50;;;;;;5016781;28;88076;-76
2021/12/15 02:56:53;;;;;;;4.00;1.30;;;19.80;59.60;;;;;;4989310;28;89066;-76
2021/12/15 02:59:29;;;;;;;2.33;1.10;;;19.80;59.60;;;;;;4997795;28;87256;-78
2021/12/15 03:07:11;;;;;;;2.83;1.05;;;19.80;59.70;;;;;;5015903;28;88214;-78
2021/12/15 03:18:12;;;;;;;2.15;1.35;;;19.80;59.80;;;;;;5016457;28;88156;-74
2021/12/15 03:20:57;;;;;;;2.35;1.13;;;19.80;59.80;;;;;;5016798;28;87765;-76
2021/12/15 03:23:52;;;;;;;4.50;1.38;;;19.80;59.90;;;;;;5019780;28;87723;-75
2021/12/15 03:26:27;;;;;;;3.20;1.13;;;19.70;59.80;;;;;;5019870;28;88165;-76
2021/12/15 03:37:25;;;;;;;1.75;1.08;;;19.70;59.90;;;;;;5019459;28;88650;-77
2021/12/15 03:39:57;;;;;;;3.03;1.25;;;19.70;60.00;;;;;;5000102;28;90748;-74
2021/12/15 03:42:31;;;;;;;2.78;1.50;;;19.70;60.00;;;;;;5019086;28;87642;-75
2021/12/15 03:44:58;;;;;;;1.73;1.00;;;19.70;60.00;;;;;;5019690;28;87342;-77
2021/12/15 03:47:29;;;;;;;2.38;1.05;;;19.70;60.10;;;;;;5018529;28;87493;-75
2021/12/15 03:49:57;;;;;;;2.58;1.25;;;19.70;60.10;;;;;;5018490;28;90467;-75
2021/12/15 03:52:23;;;;;;;2.28;1.30;;;19.70;60.10;;;;;;5019887;28;87739;-74
2021/12/15 03:54:49;;;;;;;2.28;1.25;;;19.70;60.20;;;;;;5020047;28;87062;-76
2021/12/15 03:57:15;;;;;;;2.10;1.17;;;19.70;60.20;;;;;;5001376;28;89084;-76
2021/12/15 03:59:43;;;;;;;3.35;1.60;;;19.70;60.20;;;;;;5016338;28;90390;-75
2021/12/15 04:02:15;;;;;;;3.97;1.20;;;19.70;60.30;;;;;;5018003;28;88585;-77
2021/12/15 04:04:41;;;;;;;1.98;1.08;;;19.70;60.30;;;;;;5000307;28;87978;-76
2021/12/15 04:07:08;;;;;;;2.63;1.20;;;19.60;60.20;;;;;;5008277;28;87751;-78
2021/12/15 04:09:35;;;;;;;1.88;1.10;;;19.60;60.30;;;;;;5020064;28;87934;-76
2021/12/15 04:12:00;;;;;;;2.53;1.20;;;19.60;60.20;;;;;;5001667;28;87685;-76
2021/12/15 04:14:34;;;;;;;3.80;1.13;;;19.60;60.20;;;;;;5019151;28;88354;-80
2021/12/15 04:17:05;;;;;;;3.10;1.27;;;19.60;60.20;;;;;;5020088;28;87852;-75
2021/12/15 04:19:35;;;;;;;1.63;1.15;;;19.60;60.20;;;;;;5019365;28;87473;-76
2021/12/15 04:22:01;;;;;;;3.20;1.40;;;19.60;60.30;;;;;;5001187;28;87694;-76
2021/12/15 04:24:28;;;;;;;3.13;1.08;;;19.60;60.30;;;;;;5018401;28;87453;-79
2021/12/15 04:26:57;;;;;;;3.60;1.48;;;19.60;60.30;;;;;;5000499;28;90233;-77
2021/12/15 04:29:23;;;;;;;3.80;1.38;;;19.60;60.30;;;;;;5018951;28;88782;-76
2021/12/15 04:31:55;;;;;;;3.97;1.10;;;19.60;60.30;;;;;;5018785;28;87971;-76
2021/12/15 04:34:20;;;;;;;3.00;1.30;;;19.60;60.40;;;;;;5017873;28;87676;-77
2021/12/15 04:36:49;;;;;;;4.70;1.30;;;19.60;60.40;;;;;;5019044;28;87113;-75
2021/12/15 04:39:17;;;;;;;2.65;1.00;;;19.60;60.40;;;;;;5007852;28;90192;-75
2021/12/15 04:41:48;;;;;;;2.53;1.20;;;19.60;60.40;;;;;;5020267;28;87011;-77
2021/12/15 04:44:15;;;;;;;3.08;1.40;;;19.60;60.40;;;;;;5020265;28;87317;-76
2021/12/15 04:46:45;;;;;;;2.67;1.20;;;19.60;60.40;;;;;;5019502;28;87822;-78
2021/12/15 04:49:13;;;;;;;2.03;1.02;;;19.60;60.40;;;;;;5020071;28;87806;-77
2021/12/15 04:51:39;;;;;;;2.08;1.23;;;19.60;60.40;;;;;;5021248;28;88101;-76
2021/12/15 04:54:06;;;;;;;2.17;1.05;;;19.60;61.00;;;;;;5017701;28;89289;-78
2021/12/15 04:56:32;;;;;;;2.58;1.10;;;19.60;60.50;;;;;;4993408;28;89421;-77
2021/12/15 04:58:58;;;;;;;2.88;1.42;;;19.60;60.50;;;;;;5020093;28;87720;-75
2021/12/15 05:01:25;;;;;;;4.55;1.35;;;19.60;60.50;;;;;;5019697;28;87867;-76
2021/12/15 05:03:51;;;;;;;2.80;1.10;;;19.60;60.50;;;;;;5020291;28;87379;-77
2021/12/15 05:06:16;;;;;;;2.67;1.42;;;19.60;60.50;;;;;;5019520;28;87796;-76
2021/12/15 05:08:42;;;;;;;2.42;1.10;;;19.60;60.50;;;;;;5000577;28;89188;-76
2021/12/15 05:11:11;;;;;;;4.18;1.70;;;19.60;60.50;;;;;;5019478;28;87760;-76
2021/12/15 05:13:37;;;;;;;2.13;1.10;;;19.60;60.50;;;;;;5020535;28;88050;-78
2021/12/15 05:16:04;;;;;;;1.95;0.90;;;19.50;60.40;;;;;;5016175;28;88975;-75
2021/12/15 05:18:30;;;;;;;5.20;1.13;;;19.50;60.50;;;;;;5008241;28;92201;-76
2021/12/15 05:20:58;;;;;;;1.85;1.17;;;19.50;60.50;;;;;;5018798;28;87163;-74
2021/12/15 05:23:29;;;;;;;2.65;0.90;;;19.60;60.50;;;;;;5017288;28;87801;-74
2021/12/15 05:25:56;;;;;;;1.75;1.00;;;19.50;60.50;;;;;;5017143;28;88618;-74
2021/12/15 05:28:22;;;;;;;1.55;1.02;;;19.50;60.50;;;;;;5017306;28;87962;-76
2021/12/15 05:30:47;;;;;;;2.35;1.35;;;19.50;60.60;;;;;;5017333;28;87288;-74
2021/12/15 05:33:13;;;;;;;1.67;1.15;;;19.50;60.60;;;;;;5017674;28;87202;-76
2021/12/15 05:35:39;;;;;;;1.88;1.33;;;19.50;60.60;;;;;;4999889;28;90478;-77
2021/12/15 05:38:07;;;;;;;1.75;1.10;;;19.50;60.60;;;;;;5018474;28;87128;-75
2021/12/15 05:40:34;;;;;;;1.63;1.00;;;19.50;60.60;;;;;;5018717;28;88450;-76
2021/12/15 05:43:01;;;;;;;1.55;0.95;;;19.50;61.20;;;;;;5000573;28;87755;-77
2021/12/15 05:45:30;;;;;;;1.67;1.20;;;19.50;60.60;;;;;;5018154;28;87897;-80
2021/12/15 05:47:57;;;;;;;1.60;1.02;;;19.50;60.60;;;;;;5017681;28;87387;-77
2021/12/15 05:50:26;;;;;;;2.20;1.10;;;19.50;60.80;;;;;;5019362;28;87428;-76
2021/12/15 05:52:52;;;;;;;3.13;1.40;;;19.50;60.70;;;;;;5016978;28;88090;-76
2021/12/15 05:55:18;;;;;;;2.53;1.40;;;19.50;60.70;;;;;;5017812;28;87849;-78
2021/12/15 05:57:44;;;;;;;2.65;1.10;;;19.50;61.30;;;;;;5001512;28;88626;-76
2021/12/15 06:00:17;;;;;;;2.10;1.02;;;19.50;60.70;;;;;;5019365;28;87068;-77
2021/12/15 06:02:43;;;;;;;1.77;1.27;;;19.50;60.80;;;;;;5019182;28;87083;-76
2021/12/15 06:05:10;;;;;;;4.28;0.90;;;19.50;60.80;;;;;;5018310;28;88947;-77
2021/12/15 06:07:37;;;;;;;2.00;1.00;;;19.50;60.80;;;;;;5021741;28;88862;-78
2021/12/15 06:10:05;;;;;;;1.77;1.10;;;19.50;60.80;;;;;;5019932;28;87242;-75
2021/12/15 06:12:31;;;;;;;1.67;1.00;;;19.50;60.90;;;;;;5019876;28;88264;-76
2021/12/15 06:14:57;;;;;;;1.48;1.20;;;19.50;60.90;;;;;;4991714;28;90807;-78
2021/12/15 06:17:25;;;;;;;2.05;1.13;;;19.50;60.80;;;;;;5018418;28;87620;-75
2021/12/15 06:19:52;;;;;;;3.35;1.15;;;19.50;60.90;;;;;;5018876;28;87592;-80
2021/12/15 06:22:24;;;;;;;1.65;1.00;;;19.50;60.90;;;;;;5019162;28;86246;-78
2021/12/15 06:24:50;;;;;;;2.65;0.90;;;19.50;60.90;;;;;;5018740;28;87328;-77
2021/12/15 06:27:19;;;;;;;4.43;1.10;;;19.50;60.90;;;;;;5021248;28;87273;-78
2021/12/15 06:29:46;;;;;;;2.42;1.02;;;19.40;61.20;;;;;;5020604;28;88006;-78
2021/12/15 06:32:12;;;;;;;3.90;1.00;;;19.50;61.00;;;;;;5004043;28;89621;-77
2021/12/15 06:34:38;;;;;;;1.10;1.00;;;19.40;60.90;;;;;;5019709;28;87674;-80
2021/12/15 06:37:04;;;;;;;1.45;1.02;;;19.40;60.90;;;;;;5021372;28;87484;-77
2021/12/15 06:39:30;;;;;;;1.33;1.00;;;19.40;60.90;;;;;;5020851;28;87083;-78
2021/12/15 06:41:56;;;;;;;2.13;1.02;;;19.40;60.90;;;;;;5002845;28;87336;-77
2021/12/15 06:44:22;;;;;;;1.58;1.13;;;19.40;61.50;;;;;;5002917;28;90602;-76
2021/12/15 06:47:22;;;;;;;1.90;0.90;;;19.40;61.00;;;;;;5022415;28;87780;-76
2021/12/15 07:00:36;;;;;;;2.42;1.40;;;19.40;61.00;;;;;;5020262;28;87158;-79
2021/12/15 07:03:02;;;;;;;1.17;1.02;;;19.40;61.10;;;;;;5021200;28;87395;-78
2021/12/15 07:05:32;;;;;;;2.53;1.13;;;19.40;61.10;;;;;;5020146;28;87851;-76
2021/12/15 07:08:01;;;;;;;1.98;0.90;;;19.40;61.10;;;;;;5022486;28;88232;-80
2021/12/15 07:10:30;;;;;;;2.25;1.08;;;19.40;61.10;;;;;;5022275;28;87148;-75
2021/12/15 07:12:56;;;;;;;1.83;1.05;;;19.40;61.20;;;;;;5031785;28;86822;-78
2021/12/15 07:15:22;;;;;;;1.88;1.30;;;19.40;61.70;;;;;;5039916;28;86970;-80
2021/12/15 07:17:52;;;;;;;3.92;1.10;;;19.40;61.20;;;;;;5039170;28;86921;-81
2021/12/15 07:20:36;;;;;;;1.98;1.10;;;19.30;61.20;;;;;;5039789;28;88438;-81
2021/12/15 07:23:04;;;;;;;2.38;0.90;;;19.30;61.20;;;;;;5020559;28;89102;-76
2021/12/15 07:25:30;;;;;;;4.00;1.20;;;19.30;61.20;;;;;;5037880;28;87026;-80
2021/12/15 07:27:56;;;;;;;8.95;1.15;;;19.30;61.40;;;;;;5031248;28;87639;-79
2021/12/15 07:30:23;;;;;;;4.38;1.20;;;19.30;61.80;;;;;;5037288;28;87248;-81
2021/12/15 07:32:51;;;;;;;2.38;1.35;;;19.40;61.80;;;;;;5041939;28;86974;-81
2021/12/15 07:35:20;;;;;;;4.88;1.25;;;19.40;61.80;;;;;;5041451;28;88175;-79
2021/12/15 07:37:46;;;;;;;7.78;1.27;;;19.40;61.50;;;;;;5038697;28;86450;-81
2021/12/15 07:40:20;;;;;;;12.88;1.92;;;19.50;61.30;;;;;;5041330;28;86934;-79
2021/12/15 07:45:33;;;;;;;7.03;2.30;;;19.70;61.00;;;;;;5038355;28;88456;-79
2021/12/15 07:48:02;;;;;;;5.65;2.15;;;19.80;60.80;;;;;;5041672;28;87400;-78
2021/12/15 07:50:30;;;;;;;8.93;2.00;;;19.90;60.60;;;;;;5037842;28;86903;-75
2021/12/15 07:52:56;;;;;;;7.60;2.40;;;19.90;60.30;;;;;;5041970;28;87141;-80
2021/12/15 07:55:46;;;;;;;9.52;2.25;;;20.10;60.20;;;;;;5042562;28;87200;-81
2021/12/15 07:58:12;;;;;;;5.57;2.10;;;20.10;60.00;;;;;;5044030;28;86538;-81
2021/12/15 08:00:40;;;;;;;7.93;2.45;;;20.20;59.80;;;;;;5042896;28;87508;-82
2021/12/15 08:03:07;;;;;;;6.22;2.72;;;20.30;59.60;;;;;;5019737;28;88106;-81
2021/12/15 08:05:34;;;;;;;7.40;2.53;;;20.40;59.50;;;;;;5039920;28;86956;-81
2021/12/15 08:08:00;;;;;;;8.48;2.42;;;20.40;59.30;;;;;;5018444;28;89302;-76
2021/12/15 08:10:26;;;;;;;5.78;2.75;;;20.50;59.20;;;;;;5038055;28;87983;-78
2021/12/15 08:12:52;;;;;;;9.23;2.67;;;20.50;59.00;;;;;;5038099;28;87655;-81
2021/12/15 08:15:19;;;;;;;6.68;2.42;;;20.50;58.90;;;;;;5038144;28;88545;-75
2021/12/15 08:17:50;;;;;;;12.55;3.47;;;20.50;58.70;;;;;;5008804;28;87878;-76
2021/12/15 08:20:17;;;;;;;24.58;5.35;;;20.50;58.70;;;;;;5015205;28;87424;-76
2021/12/15 08:22:43;;;;;;;32.63;7.20;;;20.50;58.50;;;;;;5012065;28;88498;-76
2021/12/15 08:25:11;;;;;;;35.78;7.85;;;20.50;58.50;;;;;;5016031;28;87554;-76
2021/12/15 08:27:38;;;;;;;35.67;8.32;;;20.50;58.30;;;;;;5014096;28;87519;-76
2021/12/15 08:30:07;;;;;;;32.75;7.90;;;20.50;58.20;;;;;;5014221;28;88033;-76
2021/12/15 08:32:33;;;;;;;29.77;7.53;;;20.50;58.00;;;;;;4971222;28;87668;-77
2021/12/15 08:34:58;;;;;;;27.88;6.78;;;20.50;57.90;;;;;;4993345;28;91857;-75
2021/12/15 08:37:24;;;;;;;30.60;6.90;;;20.50;57.80;;;;;;5012071;28;88982;-75
2021/12/15 08:39:49;;;;;;;22.52;6.97;;;20.50;57.70;;;;;;4982992;28;87771;-77
2021/12/15 08:42:16;;;;;;;36.50;7.85;;;20.50;57.90;;;;;;5025438;28;87207;-78
2021/12/15 08:44:42;;;;;;;35.03;6.68;;;20.50;58.10;;;;;;5030527;28;88126;-77
2021/12/15 08:47:08;;;;;;;20.48;6.03;;;20.40;58.30;;;;;;5024753;28;88009;-80
2021/12/15 08:49:35;;;;;;;24.70;6.18;;;20.40;59.10;;;;;;5007179;28;87836;-77
2021/12/15 08:52:01;;;;;;;24.02;6.60;;;20.40;59.90;;;;;;4993191;28;90095;-75
2021/12/15 08:54:27;;;;;;;23.60;5.78;;;20.40;60.10;;;;;;5011191;28;88360;-73
2021/12/15 08:56:53;;;;;;;22.52;6.15;;;20.40;60.90;;;;;;5011624;28;87837;-76
2021/12/15 08:59:19;;;;;;;22.15;6.30;;;20.40;60.60;;;;;;4999564;28;88809;-75
2021/12/15 09:01:46;;;;;;;24.35;5.43;;;20.40;60.80;;;;;;5010861;28;88508;-76
2021/12/15 09:04:14;;;;;;;18.70;5.55;;;20.50;61.00;;;;;;5011074;28;87890;-74
2021/12/15 09:06:42;;;;;;;17.63;5.65;;;20.50;60.80;;;;;;5010753;28;87143;-74
2021/12/15 09:09:10;;;;;;;21.48;5.32;;;20.60;61.00;;;;;;5011430;28;87590;-76
2021/12/15 09:11:36;;;;;;;18.95;4.82;;;20.70;60.50;;;;;;5011374;28;87555;-74
2021/12/15 09:14:04;;;;;;;19.10;5.07;;;20.80;60.20;;;;;;5011615;28;88450;-75
2021/12/15 09:16:32;;;;;;;16.83;5.30;;;20.90;59.90;;;;;;5013034;28;86532;-75
2021/12/15 09:18:59;;;;;;;13.00;4.50;;;21.10;59.70;;;;;;5008838;28;88721;-75
2021/12/15 09:21:27;;;;;;;14.70;4.32;;;21.20;59.30;;;;;;5010440;28;87580;-75
2021/12/15 09:23:54;;;;;;;15.02;4.22;;;21.30;59.00;;;;;;5009474;28;91731;-75
2021/12/15 09:26:20;;;;;;;13.13;4.60;;;21.50;58.80;;;;;;4991692;28;90734;-73
2021/12/15 09:28:47;;;;;;;13.48;4.57;;;21.50;58.40;;;;;;5010290;28;87992;-75
2021/12/15 09:31:15;;;;;;;14.68;4.75;;;21.70;58.10;;;;;;5009403;28;87754;-74
2021/12/15 09:33:45;;;;;;;17.02;4.63;;;21.80;57.90;;;;;;5008126;28;87601;-74
2021/12/15 09:36:12;;;;;;;12.43;4.18;;;21.80;57.90;;;;;;5010886;28;87871;-73
2021/12/15 09:38:41;;;;;;;12.45;3.90;;;21.90;57.90;;;;;;5006915;28;87697;-76
2021/12/15 09:41:11;;;;;;;11.07;4.20;;;21.90;58.10;;;;;;5008362;28;86967;-76
2021/12/15 09:43:37;;;;;;;16.25;4.50;;;21.90;58.60;;;;;;4990626;28;88050;-74
2021/12/15 09:46:37;;;;;;;12.55;3.88;;;22.00;58.90;;;;;;5027784;28;87861;-74
2021/12/15 09:57:28;;;;;;;10.70;3.63;;;22.10;59.10;;;;;;5030447;28;88517;-74
2021/12/15 10:02:50;;;;;;;15.30;4.30;;;22.00;58.80;;;;;;5041153;28;87504;-75
2021/12/15 10:19:38;;;;;;;15.63;4.05;;;22.00;59.50;;;;;;5029729;28;87407;-73
2021/12/15 10:22:14;;;;;;;11.35;3.58;;;22.00;60.20;;;;;;5028980;28;88035;-73
2021/12/15 10:24:46;;;;;;;9.05;3.45;;;22.00;59.50;;;;;;5028970;28;87801;-73
2021/12/15 10:27:18;;;;;;;10.75;3.30;;;22.00;59.50;;;;;;5011087;28;90630;-73
2021/12/15 10:30:30;;;;;;;8.50;3.78;;;22.00;59.50;;;;;;5010056;28;90020;-74
2021/12/15 10:33:11;;;;;;;11.13;3.63;;;21.90;59.40;;;;;;4998376;28;87581;-74
2021/12/15 10:35:46;;;;;;;7.10;3.20;;;21.90;59.90;;;;;;5033591;28;87082;-74
2021/12/15 10:38:24;;;;;;;8.20;3.35;;;21.90;59.60;;;;;;5032891;28;87796;-73
2021/12/15 10:40:59;;;;;;;14.50;3.83;;;21.90;59.50;;;;;;5033097;28;88072;-74
2021/12/15 10:43:36;;;;;;;9.07;3.38;;;21.90;59.50;;;;;;5013789;28;88750;-73
2021/12/15 10:46:07;;;;;;;8.10;3.15;;;21.80;59.40;;;;;;5031586;28;87196;-74
2021/12/15 10:48:40;;;;;;;10.00;3.78;;;21.80;59.40;;;;;;5031561;28;87533;-74
2021/12/15 10:51:25;;;;;;;10.20;3.63;;;21.80;59.40;;;;;;5031804;28;88025;-73
2021/12/15 10:53:52;;;;;;;9.00;3.10;;;21.80;59.30;;;;;;5014233;28;87646;-73
2021/12/15 10:56:21;;;;;;;7.50;3.38;;;21.80;59.30;;;;;;5032463;28;87500;-73
2021/12/15 10:58:53;;;;;;;10.80;3.03;;;21.80;59.20;;;;;;5032141;28;87790;-73
2021/12/15 11:01:46;;;;;;;9.15;3.40;;;21.70;59.20;;;;;;5014045;28;89034;-73
2021/12/15 11:04:26;;;;;;;9.85;4.03;;;21.70;59.10;;;;;;5032624;28;87675;-74
2021/12/15 11:07:29;;;;;;;8.40;3.75;;;21.70;59.00;;;;;;5032708;28;87291;-74
2021/12/15 11:10:04;;;;;;;8.68;3.47;;;21.70;59.00;;;;;;5031432;28;89019;-73
2021/12/15 11:12:38;;;;;;;5.97;2.80;;;21.70;59.00;;;;;;5031587;28;88265;-72
2021/12/15 11:15:13;;;;;;;7.32;3.33;;;21.70;58.90;;;;;;5028033;28;88098;-73
2021/12/15 11:17:46;;;;;;;7.65;3.28;;;21.70;58.80;;;;;;5031673;28;87953;-73
2021/12/15 11:20:24;;;;;;;8.00;3.60;;;21.70;58.80;;;;;;5000952;28;89449;-75
2021/12/15 11:22:58;;;;;;;9.38;3.58;;;21.70;58.70;;;;;;5031766;28;87609;-76
2021/12/15 11:25:32;;;;;;;11.48;3.92;;;21.70;58.70;;;;;;5029309;28;87738;-73
2021/12/15 11:28:05;;;;;;;6.53;2.90;;;21.70;58.70;;;;;;5030227;28;86545;-75
2021/12/15 11:30:37;;;;;;;8.90;3.25;;;21.70;58.60;;;;;;4997945;28;90115;-74
2021/12/15 11:33:09;;;;;;;9.25;2.95;;;21.70;58.60;;;;;;5011803;28;87921;-73
2021/12/15 11:35:40;;;;;;;5.43;2.80;;;21.70;58.50;;;;;;5028725;28;88694;-73
2021/12/15 11:38:15;;;;;;;8.02;3.00;;;21.70;58.50;;;;;;5026828;28;88066;-74
2021/12/15 11:40:52;;;;;;;7.80;2.92;;;21.70;58.40;;;;;;5029319;28;87430;-74
2021/12/15 11:43:27;;;;;;;6.00;3.00;;;21.70;58.40;;;;;;5029156;27;87711;-75
2021/12/15 11:45:53;;;;;;;7.28;3.30;;;21.70;58.30;;;;;;5028625;28;88093;-74
2021/12/15 11:48:23;;;;;;;6.05;3.17;;;21.70;58.30;;;;;;5029064;28;87661;-74
2021/12/15 11:50:53;;;;;;;8.30;3.38;;;21.70;58.30;;;;;;5028309;28;88099;-74
2021/12/15 11:53:41;;;;;;;6.07;2.70;;;21.70;58.20;;;;;;5028656;28;87583;-74
2021/12/15 11:56:21;;;;;;;4.82;2.45;;;21.70;58.20;;;;;;5009187;28;87154;-77
2021/12/15 11:58:50;;;;;;;5.78;3.17;;;21.60;58.40;;;;;;5029254;28;87763;-75
2021/12/15 12:01:40;;;;;;;7.88;3.20;;;21.60;58.40;;;;;;5029812;28;90475;-75
2021/12/15 12:04:12;;;;;;;5.88;2.63;;;21.70;58.40;;;;;;5028330;28;88226;-72
2021/12/15 12:06:38;;;;;;;6.80;2.80;;;21.70;58.30;;;;;;4974357;28;88492;-75
2021/12/15 12:09:04;;;;;;;5.35;2.58;;;21.60;58.20;;;;;;5028680;28;87647;-77
2021/12/15 12:11:33;;;;;;;4.80;2.95;;;21.70;58.20;;;;;;5028468;28;87878;-75
2021/12/15 12:13:59;;;;;;;5.00;2.92;;;21.70;58.10;;;;;;5010069;28;90082;-76
2021/12/15 12:16:25;;;;;;;6.45;3.05;;;21.70;58.10;;;;;;5029368;28;88221;-76
2021/12/15 12:18:52;;;;;;;4.72;2.45;;;21.70;58.00;;;;;;5029064;28;87309;-75
2021/12/15 12:21:18;;;;;;;5.40;2.67;;;21.70;58.00;;;;;;5026994;28;87815;-75
2021/12/15 12:23:46;;;;;;;6.57;3.10;;;21.70;58.00;;;;;;5027122;28;88071;-76
2021/12/15 12:26:12;;;;;;;6.03;2.63;;;21.70;58.00;;;;;;5026739;28;88730;-75
2021/12/15 12:28:41;;;;;;;5.93;2.90;;;21.70;57.90;;;;;;5026453;28;88357;-74
2021/12/15 12:31:13;;;;;;;6.35;3.03;;;21.70;58.20;;;;;;5030215;28;88254;-74
2021/12/15 12:33:39;;;;;;;7.75;2.53;;;21.70;58.50;;;;;;5035549;28;87609;-74
2021/12/15 12:36:04;;;;;;;6.10;2.65;;;21.70;58.70;;;;;;5033234;28;87155;-77
2021/12/15 12:38:32;;;;;;;6.13;2.30;;;21.60;59.00;;;;;;5030444;28;87619;-79
2021/12/15 12:41:20;;;;;;;5.45;2.65;;;21.60;59.10;;;;;;5032961;28;87839;-77
2021/12/15 12:43:50;;;;;;;6.45;2.58;;;21.60;59.00;;;;;;5032556;28;87845;-75
2021/12/15 13:00:28;;;;;;;4.82;2.85;;;21.70;60.00;;;;;;5032816;28;87585;-75
2021/12/15 13:03:28;;;;;;;5.45;2.58;;;21.70;60.10;;;;;;5027993;28;88070;-77
2021/12/15 13:06:07;;;;;;;5.97;2.63;;;21.80;60.10;;;;;;5027019;28;87187;-73
2021/12/15 13:08:41;;;;;;;4.97;2.22;;;21.80;59.90;;;;;;5028502;28;87711;-77
2021/12/15 13:11:15;;;;;;;6.38;2.28;;;21.80;59.80;;;;;;5029845;28;88014;-75
2021/12/15 13:14:09;;;;;;;5.50;2.60;;;21.70;60.10;;;;;;5028160;28;87882;-73
2021/12/15 13:16:38;;;;;;;5.30;2.60;;;21.80;60.20;;;;;;4991254;28;88005;-77
2021/12/15 13:19:19;;;;;;;8.38;2.22;;;21.80;60.30;;;;;;5027385;28;89181;-75
2021/12/15 13:22:17;;;;;;;5.50;2.70;;;21.80;60.10;;;;;;5027415;28;87843;-77
2021/12/15 13:31:06;;;;;;;47.92;20.10;;;21.80;61.70;;;;;;5024862;28;88039;-76
2021/12/15 13:33:35;;;;;;;42.83;16.20;;;21.80;61.90;;;;;;5025945;28;87335;-75
2021/12/15 13:36:24;;;;;;;49.40;20.25;;;21.80;62.00;;;;;;5007224;28;90497;-73
2021/12/15 13:39:09;;;;;;;44.38;17.90;;;21.80;62.30;;;;;;5024350;28;88226;-73
2021/12/15 13:41:49;;;;;;;37.45;15.77;;;21.90;62.40;;;;;;5026598;28;87531;-74
2021/12/15 13:44:40;;;;;;;31.80;14.15;;;21.90;62.50;;;;;;4994607;28;90017;-75
2021/12/15 13:47:11;;;;;;;36.50;13.50;;;21.90;62.60;;;;;;5026817;28;88808;-75
2021/12/15 13:49:41;;;;;;;35.75;14.73;;;21.90;63.00;;;;;;5006707;28;88466;-74
2021/12/15 13:52:31;;;;;;;36.63;14.40;;;21.90;63.20;;;;;;5006875;28;88006;-74
2021/12/15 13:55:05;;;;;;;30.30;13.20;;;22.00;63.70;;;;;;5026956;28;88143;-74
2021/12/15 13:57:45;;;;;;;36.05;15.48;;;22.00;64.30;;;;;;5008842;28;89876;-76
2021/12/15 14:00:19;;;;;;;29.52;11.98;;;22.00;64.40;;;;;;5026430;28;87670;-77
2021/12/15 14:03:14;;;;;;;32.42;14.15;;;22.00;63.90;;;;;;5025708;28;87738;-75
2021/12/15 14:05:58;;;;;;;29.10;12.35;;;22.00;63.40;;;;;;5026410;28;86817;-76
2021/12/15 14:08:40;;;;;;;33.55;13.65;;;22.00;63.30;;;;;;5025922;28;88086;-74
2021/12/15 14:11:21;;;;;;;26.95;12.68;;;22.00;63.00;;;;;;5026027;28;87916;-76
2021/12/15 14:13:51;;;;;;;33.88;13.00;;;22.10;62.90;;;;;;4999717;28;88847;-77
2021/12/15 14:16:50;;;;;;;32.50;12.48;;;22.00;63.20;;;;;;5024455;28;88033;-76
2021/12/15 14:19:24;;;;;;;27.23;12.00;;;22.00;62.40;;;;;;5026410;28;88036;-76
2021/12/15 14:21:50;;;;;;;28.30;12.48;;;22.00;62.30;;;;;;5009217;28;87513;-78
2021/12/15 14:24:18;;;;;;;30.63;12.68;;;22.00;62.10;;;;;;5026127;28;87274;-76
2021/12/15 14:26:45;;;;;;;26.35;11.32;;;22.10;62.00;;;;;;5029670;28;88068;-78
2021/12/15 14:29:23;;;;;;;23.90;11.07;;;22.10;61.80;;;;;;5029457;28;88344;-76
2021/12/15 14:31:50;;;;;;;24.40;11.30;;;22.10;61.70;;;;;;5029541;28;86869;-76
2021/12/15 14:34:22;;;;;;;27.38;11.18;;;22.10;61.50;;;;;;5027213;28;87938;-75
2021/12/15 14:36:56;;;;;;;23.67;11.48;;;22.00;61.30;;;;;;5026699;28;87576;-78
2021/12/15 14:39:28;;;;;;;24.38;11.10;;;22.10;61.30;;;;;;5026731;28;89340;-78
2021/12/15 14:41:58;;;;;;;23.52;10.15;;;22.10;61.20;;;;;;5027231;28;88791;-77